createdAt,value
2018-07-11T00:00:02.774Z,21.87
2018-07-11T00:03:06.026Z,24.80
2018-07-11T00:06:09.102Z,25.30
2018-07-11T00:09:12.221Z,20.57
2018-07-11T00:12:15.307Z,21.90
2018-07-11T00:15:18.568Z,17.63
2018-07-11T00:18:21.852Z,20.07
2018-07-11T00:21:25.226Z,18.60
2018-07-11T00:24:28.356Z,17.40
2018-07-11T00:27:31.715Z,20.23
2018-07-11T00:30:34.846Z,19.87
2018-07-11T00:33:38.018Z,25.37
2018-07-11T00:36:41.056Z,22.07
2018-07-11T00:39:44.229Z,24.07
2018-07-11T00:42:47.512Z,21.73
2018-07-11T00:45:51.082Z,23.93
2018-07-11T00:48:54.363Z,18.97
2018-07-11T00:51:57.580Z,23.73
2018-07-11T00:55:00.613Z,23.50
2018-07-11T00:58:43.498Z,21.13
2018-07-11T01:01:47.081Z,18.67
2018-07-11T01:04:50.229Z,21.27
2018-07-11T01:07:53.455Z,18.03
2018-07-11T01:10:59.332Z,19.30
2018-07-11T01:14:02.540Z,23.10
2018-07-11T01:17:10.222Z,19.20
2018-07-11T01:20:13.429Z,18.07
2018-07-11T01:23:16.643Z,18.23
2018-07-11T01:26:24.892Z,15.50
2018-07-11T01:29:29.079Z,18.40
2018-07-11T01:32:32.289Z,15.83
2018-07-11T01:35:36.363Z,17.53
2018-07-11T01:38:39.550Z,16.53
2018-07-11T01:41:42.836Z,17.33
2018-07-11T01:44:47.208Z,18.37
2018-07-11T01:47:51.430Z,20.13
2018-07-11T01:50:54.678Z,25.63
2018-07-11T01:53:57.825Z,20.60
2018-07-11T01:57:02.937Z,20.23
2018-07-11T02:00:07.121Z,21.97
2018-07-11T02:03:10.286Z,23.07
2018-07-11T02:06:15.382Z,23.40
2018-07-11T02:09:18.683Z,21.30
2018-07-11T02:12:21.749Z,23.83
2018-07-11T02:15:25.881Z,20.33
2018-07-11T02:18:29.759Z,20.00
2018-07-11T02:21:34.861Z,18.63
2018-07-11T02:24:37.904Z,20.10
2018-07-11T02:27:42.047Z,20.97
2018-07-11T02:30:47.288Z,22.53
2018-07-11T02:33:50.341Z,18.90
2018-07-11T02:36:53.499Z,18.60
2018-07-11T02:39:56.818Z,19.17
2018-07-11T02:43:00.011Z,17.37
2018-07-11T02:46:03.065Z,18.30
2018-07-11T02:49:06.208Z,21.50
2018-07-11T02:52:09.248Z,17.23
2018-07-11T02:55:12.419Z,18.83
2018-07-11T02:58:15.601Z,19.00
2018-07-11T03:01:19.799Z,18.80
2018-07-11T03:04:24.263Z,19.20
2018-07-11T03:13:28.284Z,20.70
2018-07-11T03:16:31.694Z,17.63
2018-07-11T03:19:34.987Z,15.17
2018-07-11T03:22:39.399Z,17.43
2018-07-11T03:25:42.699Z,16.13
2018-07-11T03:28:45.866Z,16.57
2018-07-11T03:31:49.192Z,21.47
2018-07-11T03:34:53.532Z,20.63
2018-07-11T03:37:56.699Z,20.77
2018-07-11T03:41:00.292Z,19.07
2018-07-11T03:44:03.743Z,16.87
2018-07-11T03:47:07.119Z,19.00
2018-07-11T03:50:10.426Z,20.23
2018-07-11T03:53:13.803Z,19.17
2018-07-11T03:56:16.867Z,18.60
2018-07-11T03:59:20.177Z,19.90
2018-07-11T04:02:23.444Z,23.10
2018-07-11T04:05:26.835Z,21.00
2018-07-11T04:08:30.179Z,20.67
2018-07-11T04:11:33.474Z,20.97
2018-07-11T04:14:37.623Z,21.63
2018-07-11T04:17:41.744Z,20.70
2018-07-11T04:20:44.921Z,16.17
2018-07-11T04:23:48.513Z,18.80
2018-07-11T04:26:52.109Z,16.27
2018-07-11T04:29:55.232Z,18.70
2018-07-11T04:32:58.472Z,17.17
2018-07-11T04:36:01.650Z,19.97
2018-07-11T04:39:04.922Z,17.80
2018-07-11T04:42:08.443Z,17.97
2018-07-11T04:45:11.868Z,17.17
2018-07-11T04:48:15.328Z,16.13
2018-07-11T04:51:18.773Z,16.57
2018-07-11T04:54:22.158Z,15.37
2018-07-11T04:57:26.601Z,15.87
2018-07-11T05:00:31.937Z,14.37
2018-07-11T05:03:35.102Z,14.93
2018-07-11T05:06:38.428Z,14.40
2018-07-11T05:09:41.842Z,13.13
2018-07-11T05:12:45.124Z,13.53
2018-07-11T05:15:48.338Z,13.33
2018-07-11T05:18:51.534Z,14.37
2018-07-11T05:21:54.849Z,13.13
2018-07-11T05:24:59.350Z,13.20
2018-07-11T05:28:02.672Z,11.60
2018-07-11T05:31:06.826Z,13.13
2018-07-11T05:34:09.918Z,12.03
2018-07-11T05:37:14.068Z,12.07
2018-07-11T05:40:17.336Z,11.60
2018-07-11T05:43:22.416Z,10.73
2018-07-11T05:46:26.562Z,10.83
2018-07-11T05:49:29.987Z,9.57
2018-07-11T05:52:33.281Z,11.83
2018-07-11T05:55:36.680Z,11.07
2018-07-11T05:58:41.129Z,12.37
2018-07-11T06:01:44.473Z,11.27
2018-07-11T06:04:47.578Z,12.33
2018-07-11T06:07:52.708Z,9.37
2018-07-11T06:10:56.766Z,9.60
2018-07-11T06:14:01.978Z,12.37
2018-07-11T06:17:05.227Z,12.80
2018-07-11T06:20:08.730Z,11.47
2018-07-11T06:23:12.039Z,11.37
2018-07-11T06:26:17.391Z,10.60
2018-07-11T06:29:20.749Z,13.07
2018-07-11T06:32:24.078Z,9.17
2018-07-11T06:35:27.437Z,9.50
2018-07-11T06:38:30.396Z,11.20
2018-07-11T06:41:34.588Z,9.80
2018-07-11T06:44:37.849Z,10.73
2018-07-11T06:47:40.914Z,11.93
2018-07-11T06:50:46.328Z,10.37
2018-07-11T06:53:50.765Z,9.77
2018-07-11T06:56:54.002Z,10.43
2018-07-11T06:59:57.274Z,10.73
2018-07-11T07:03:01.592Z,12.70
2018-07-11T07:06:09.637Z,12.03
2018-07-11T07:09:13.773Z,9.57
2018-07-11T07:12:16.903Z,12.73
2018-07-11T07:15:23.555Z,10.43
2018-07-11T07:18:26.755Z,12.93
2018-07-11T07:21:34.469Z,11.40
2018-07-11T07:24:37.523Z,10.13
2018-07-11T07:27:40.733Z,10.23
2018-07-11T07:30:45.204Z,10.37
2018-07-11T07:33:48.691Z,8.90
2018-07-11T07:36:52.040Z,9.10
2018-07-11T07:40:05.926Z,12.20
2018-07-11T07:43:09.002Z,10.57
2018-07-11T07:46:13.274Z,11.20
2018-07-11T07:49:16.577Z,11.77
2018-07-11T07:52:20.774Z,12.77
2018-07-11T07:55:27.736Z,11.83
2018-07-11T07:58:31.005Z,13.40
2018-07-11T08:01:36.484Z,10.93
2018-07-11T08:04:40.978Z,11.67
2018-07-11T08:07:47.743Z,9.43
2018-07-11T08:10:51.114Z,9.37
2018-07-11T08:13:54.539Z,10.40
2018-07-11T08:16:58.994Z,9.80
2018-07-11T08:20:02.429Z,9.83
2018-07-11T08:23:18.181Z,9.77
2018-07-11T08:26:33.822Z,8.50
2018-07-11T08:30:20.435Z,8.03
2018-07-11T08:33:39.711Z,7.97
2018-07-11T08:41:02.335Z,7.83
2018-07-11T08:49:44.285Z,7.20
2018-07-11T08:53:02.393Z,6.80
2018-07-11T08:58:24.910Z,5.10
2018-07-11T09:01:39.165Z,4.83
2018-07-11T09:05:11.010Z,7.73
2018-07-11T09:08:32.855Z,5.33
2018-07-11T09:11:44.733Z,4.87
2018-07-11T09:20:34.417Z,5.33
2018-07-11T09:23:49.559Z,6.90
2018-07-11T09:26:52.706Z,7.93
2018-07-11T09:30:03.433Z,6.50
2018-07-11T09:33:06.470Z,7.93
2018-07-11T09:36:09.549Z,6.90
2018-07-11T09:39:12.632Z,9.67
2018-07-11T09:42:15.852Z,7.17
2018-07-11T09:45:19.159Z,8.43
2018-07-11T09:48:22.333Z,9.33
2018-07-11T09:51:25.385Z,7.30
2018-07-11T09:54:28.501Z,8.60
2018-07-11T09:57:33.252Z,7.50
2018-07-11T10:00:44.153Z,7.30
2018-07-11T10:03:47.602Z,7.03
2018-07-11T10:06:50.790Z,7.93
2018-07-11T10:09:54.290Z,7.00
2018-07-11T10:12:57.683Z,8.67
2018-07-11T10:16:00.725Z,7.93
2018-07-11T10:19:04.716Z,9.60
2018-07-11T10:22:07.878Z,11.70
2018-07-11T10:25:10.889Z,7.50
2018-07-11T10:28:17.080Z,8.57
2018-07-11T10:31:20.345Z,8.93
2018-07-11T10:34:23.687Z,9.93
2018-07-11T10:37:27.135Z,8.23
2018-07-11T10:40:30.322Z,9.60
2018-07-11T10:43:33.617Z,8.13
2018-07-11T10:46:36.801Z,7.33
2018-07-11T10:49:40.372Z,8.67
2018-07-11T10:52:43.500Z,7.17
2018-07-11T10:55:46.762Z,8.00
2018-07-11T10:58:49.821Z,9.37
2018-07-11T11:01:52.890Z,9.43
2018-07-11T11:04:56.167Z,6.77
2018-07-11T11:08:00.421Z,6.67
2018-07-11T11:11:03.599Z,8.90
2018-07-11T11:14:07.950Z,7.80
2018-07-11T11:17:11.427Z,6.40
2018-07-11T11:20:14.661Z,8.10
2018-07-11T11:23:18.212Z,8.30
2018-07-11T11:26:21.696Z,10.37
2018-07-11T11:29:24.967Z,10.07
2018-07-11T11:32:28.230Z,9.97
2018-07-11T11:35:31.505Z,9.77
2018-07-11T11:38:34.931Z,7.70
2018-07-11T11:41:38.417Z,5.73
2018-07-11T11:44:41.817Z,4.70
2018-07-11T11:47:44.905Z,5.70
2018-07-11T11:50:48.097Z,8.13
2018-07-11T11:53:51.351Z,5.93
2018-07-11T11:56:54.706Z,4.77
2018-07-11T11:59:58.081Z,6.37
2018-07-11T12:03:01.330Z,4.87
2018-07-11T12:06:04.787Z,5.03
2018-07-11T12:09:08.601Z,5.50
2018-07-11T12:12:11.741Z,6.27
2018-07-11T12:15:15.084Z,5.30
2018-07-11T12:18:18.350Z,5.63
2018-07-11T12:21:21.589Z,3.80
2018-07-11T12:24:24.867Z,4.03
2018-07-11T12:27:28.129Z,6.77
2018-07-11T12:30:31.672Z,5.80
2018-07-11T12:33:34.972Z,6.80
2018-07-11T12:36:38.365Z,8.87
2018-07-11T12:39:41.596Z,6.90
2018-07-11T12:42:45.221Z,7.07
2018-07-11T12:45:48.489Z,6.03
2018-07-11T12:48:57.463Z,6.53
2018-07-11T12:52:00.740Z,6.20
2018-07-11T12:55:03.860Z,8.73
2018-07-11T12:58:07.200Z,5.93
2018-07-11T13:01:10.460Z,8.27
2018-07-11T13:04:13.567Z,8.57
2018-07-11T13:07:16.696Z,8.40
2018-07-11T13:10:20.019Z,9.33
2018-07-11T13:13:23.107Z,6.77
2018-07-11T13:16:26.336Z,4.73
2018-07-11T13:19:29.527Z,7.23
2018-07-11T13:22:32.835Z,9.47
2018-07-11T13:25:36.247Z,8.33
2018-07-11T13:28:39.425Z,8.70
2018-07-11T13:31:42.961Z,7.57
2018-07-11T13:34:46.394Z,9.43
2018-07-11T13:37:49.608Z,8.43
2018-07-11T13:40:52.794Z,7.70
2018-07-11T13:43:56.216Z,5.80
2018-07-11T13:46:59.508Z,6.83
2018-07-11T13:50:02.827Z,7.40
2018-07-11T13:53:06.138Z,7.90
2018-07-11T13:56:09.394Z,9.87
2018-07-11T13:59:12.537Z,9.03
2018-07-11T14:02:15.901Z,8.17
2018-07-11T14:05:19.593Z,9.53
2018-07-11T14:08:22.952Z,8.20
2018-07-11T14:11:26.174Z,8.03
2018-07-11T14:14:29.466Z,6.80
2018-07-11T14:17:32.637Z,8.87
2018-07-11T14:20:36.035Z,6.60
2018-07-11T14:23:42.105Z,5.90
2018-07-11T14:26:45.563Z,3.10
2018-07-11T14:29:49.092Z,3.80
2018-07-11T14:32:55.635Z,1.53
2018-07-11T14:35:59.513Z,1.90
2018-07-11T14:39:04.221Z,2.03
2018-07-11T14:42:07.579Z,1.30
2018-07-11T14:45:10.823Z,3.00
2018-07-11T14:48:15.456Z,7.03
2018-07-11T14:51:18.747Z,2.50
2018-07-11T14:54:21.933Z,3.03
2018-07-11T14:57:25.347Z,6.50
2018-07-11T15:00:29.676Z,5.27
2018-07-11T15:03:32.959Z,5.67
2018-07-11T15:06:36.073Z,7.57
2018-07-11T15:09:39.142Z,12.43
2018-07-11T15:12:42.315Z,7.87
2018-07-11T15:15:45.689Z,8.07
2018-07-11T15:19:51.756Z,9.37
2018-07-11T15:22:55.188Z,8.60
2018-07-11T15:25:58.531Z,9.43
2018-07-11T15:29:01.705Z,9.03
2018-07-11T15:32:05.102Z,11.83
2018-07-11T15:35:09.940Z,8.47
2018-07-11T15:38:14.479Z,9.37
2018-07-11T15:41:17.713Z,9.10
2018-07-11T15:44:20.934Z,7.83
2018-07-11T15:47:24.641Z,10.33
2018-07-11T15:50:27.925Z,8.53
2018-07-11T15:53:31.191Z,9.87
2018-07-11T15:56:35.313Z,9.33
2018-07-11T15:59:47.521Z,10.10
2018-07-11T16:02:51.604Z,13.00
2018-07-11T16:05:55.215Z,14.80
2018-07-11T16:09:04.169Z,14.87
2018-07-11T16:12:07.706Z,14.33
2018-07-11T16:15:11.296Z,13.50
2018-07-11T16:18:15.675Z,17.50
2018-07-11T16:21:18.942Z,17.50
2018-07-11T16:24:22.218Z,13.67
2018-07-11T16:27:25.463Z,18.70
2018-07-11T16:30:28.903Z,17.20
2018-07-11T16:33:32.155Z,17.67
2018-07-11T16:36:37.495Z,18.50
2018-07-11T16:39:41.935Z,18.67
2018-07-11T16:42:45.330Z,18.33
2018-07-11T16:45:49.633Z,20.03
2018-07-11T16:48:53.321Z,15.17
2018-07-11T16:51:56.878Z,17.07
2018-07-11T16:55:03.444Z,20.73
2018-07-11T16:58:08.650Z,18.47
2018-07-11T17:01:12.120Z,17.30
2018-07-11T17:04:15.353Z,18.33
2018-07-11T17:07:19.335Z,15.87
2018-07-11T17:10:23.723Z,17.00
2018-07-11T17:13:26.857Z,19.97
2018-07-11T17:17:05.379Z,19.43
2018-07-11T17:20:10.741Z,16.93
2018-07-11T17:23:13.868Z,15.67
2018-07-11T17:26:18.594Z,17.37
2018-07-11T17:29:25.115Z,18.77
2018-07-11T17:32:30.194Z,16.53
2018-07-11T17:35:33.708Z,17.00
2018-07-11T17:38:37.053Z,18.30
2018-07-11T17:41:40.530Z,19.80
2018-07-11T17:44:48.081Z,18.50
2018-07-11T17:48:00.649Z,20.40
2018-07-11T17:51:08.886Z,20.93
2018-07-11T17:54:12.243Z,17.80
2018-07-11T17:57:23.908Z,15.83
2018-07-11T18:00:38.281Z,16.13
2018-07-11T18:04:06.417Z,15.23
2018-07-11T18:07:13.740Z,16.30
2018-07-11T18:10:30.162Z,18.37
2018-07-11T18:13:37.819Z,17.50
2018-07-11T18:18:55.109Z,18.83
2018-07-11T18:24:19.728Z,17.30
2018-07-11T18:27:37.306Z,18.13
2018-07-11T18:32:55.179Z,18.23
2018-07-11T18:36:08.661Z,16.07
2018-07-11T18:39:20.906Z,19.07
2018-07-11T18:42:46.621Z,14.70
2018-07-11T18:46:00.936Z,17.03
2018-07-11T18:49:24.049Z,18.13
2018-07-11T18:52:31.954Z,14.17
2018-07-11T18:57:43.174Z,16.47
2018-07-11T19:00:58.488Z,14.97
2018-07-11T19:04:14.106Z,16.47
2018-07-11T19:09:30.561Z,19.13
2018-07-11T19:12:45.540Z,22.33
2018-07-11T19:15:53.700Z,21.60
2018-07-11T19:19:05.913Z,17.83
2018-07-11T19:22:17.319Z,15.73
2018-07-11T19:25:30.046Z,15.70
2018-07-11T19:28:44.003Z,15.97
2018-07-11T19:31:57.813Z,14.73
2018-07-11T19:35:08.021Z,16.80
2018-07-11T19:38:34.647Z,18.17
2018-07-11T19:41:47.195Z,15.77
2018-07-11T19:49:06.433Z,16.10
2018-07-11T19:52:21.429Z,15.43
2018-07-11T19:56:33.436Z,17.57
2018-07-11T19:59:36.686Z,19.00
2018-07-11T20:02:39.938Z,12.17
2018-07-11T20:05:53.343Z,14.23
2018-07-11T20:08:48.023Z,14.23
2018-07-11T20:11:51.222Z,14.10
2018-07-11T20:14:54.450Z,12.67
2018-07-11T20:17:57.519Z,14.73
2018-07-11T20:21:00.637Z,14.17
2018-07-11T20:24:03.719Z,14.33
2018-07-11T20:27:06.827Z,13.77
2018-07-11T20:30:40.640Z,10.87
2018-07-11T20:33:43.959Z,14.07
2018-07-11T20:36:47.147Z,12.73
2018-07-11T20:39:50.425Z,17.97
2018-07-11T20:42:53.665Z,14.87
2018-07-11T20:45:56.793Z,15.10
2018-07-11T20:49:03.853Z,17.57
2018-07-11T20:52:07.134Z,18.07
2018-07-11T20:55:10.278Z,15.40
2018-07-11T20:58:24.501Z,17.13
2018-07-11T21:01:38.811Z,21.53
2018-07-11T21:04:53.381Z,23.17
2018-07-11T21:08:39.695Z,22.17
2018-07-11T21:13:58.308Z,20.40
2018-07-11T21:19:09.221Z,24.10
2018-07-11T21:22:12.380Z,23.53
2018-07-11T21:25:15.406Z,24.93
2018-07-11T21:28:18.598Z,25.07
2018-07-11T21:31:21.811Z,25.00
2018-07-11T21:34:24.937Z,24.63
2018-07-11T21:37:28.150Z,26.50
2018-07-11T21:40:31.310Z,28.07
2018-07-11T21:43:34.395Z,30.90
2018-07-11T21:46:37.514Z,29.67
2018-07-11T21:49:40.656Z,32.37
2018-07-11T21:52:43.665Z,34.73
2018-07-11T21:55:46.719Z,30.70
2018-07-11T21:58:49.950Z,36.83
2018-07-11T22:01:53.120Z,39.87
2018-07-11T22:04:56.315Z,37.17
2018-07-11T22:07:59.352Z,36.43
2018-07-11T22:11:02.441Z,41.37
2018-07-11T22:14:05.674Z,45.10
2018-07-11T22:17:20.305Z,38.73
2018-07-11T22:20:22.292Z,37.10
2018-07-11T22:23:24.467Z,38.50
2018-07-11T22:26:26.453Z,42.70
2018-07-11T22:29:28.420Z,46.53
2018-07-11T22:32:30.475Z,40.57
2018-07-11T22:35:32.566Z,43.27
2018-07-11T22:38:34.563Z,44.70
2018-07-11T22:41:36.561Z,46.00
2018-07-11T22:44:38.642Z,45.93
2018-07-11T22:47:40.667Z,47.10
2018-07-11T22:50:42.703Z,44.53
2018-07-11T22:53:44.720Z,47.33
2018-07-11T22:56:46.356Z,42.07
2018-07-11T22:59:49.006Z,46.30
2018-07-11T23:02:50.992Z,46.97
2018-07-11T23:05:53.005Z,37.23
2018-07-11T23:08:55.047Z,37.90
2018-07-11T23:11:57.115Z,36.30
2018-07-11T23:14:58.770Z,36.30
2018-07-11T23:18:00.399Z,36.37
2018-07-11T23:21:02.114Z,35.73
2018-07-11T23:24:04.181Z,38.33
2018-07-11T23:27:06.258Z,39.93
2018-07-11T23:30:08.316Z,38.93
2018-07-11T23:33:10.411Z,44.33
2018-07-11T23:36:12.012Z,43.57
2018-07-11T23:39:14.195Z,44.07
2018-07-11T23:42:15.860Z,47.13
2018-07-11T23:45:18.258Z,44.07
2018-07-11T23:48:20.289Z,49.83
2018-07-11T23:51:22.407Z,49.07
2018-07-11T23:54:24.430Z,42.80
2018-07-11T23:57:26.581Z,52.60
